Terminal Aerodrome Forecast
Issued by NWS Northern Indiana

Home | Current Version | Previous Version | Graphics & Text | Print | Product List | Glossary On
Versions: 1 2 3 4 5 6 7 8 9 10 11 12 13
908
FTUS43 KIWX 211720
TAFFWA
TAF
KFWA 211720Z 2118/2218 34008KT P6SM SCT200
     FM212100 31011KT P6SM BKN200
     FM220300 35010KT P6SM FEW250
     FM221400 04009KT P6SM SKC=

USA.gov is the U.S. government's official web portal to all federal, state and local government web resources and services.